sensor_id;sensor_type;location;lat;lon;timestamp;pressure;altitude;pressure_sealevel;temperature;humidity
69245;BME280;56357;52.304;4.870;2023-01-27T00:00:25;102832.16;;;16.91;52.31
69245;BME280;56357;52.304;4.870;2023-01-27T00:02:51;102836.69;;;16.92;52.33
69245;BME280;56357;52.304;4.870;2023-01-27T00:05:18;102830.25;;;16.85;52.32
69245;BME280;56357;52.304;4.870;2023-01-27T00:07:44;102827.66;;;16.90;52.28
69245;BME280;56357;52.304;4.870;2023-01-27T00:10:16;102835.19;;;16.89;52.42
69245;BME280;56357;52.304;4.870;2023-01-27T00:12:45;102828.09;;;16.87;52.45
69245;BME280;56357;52.304;4.870;2023-01-27T00:15:30;102831.13;;;16.85;52.33
69245;BME280;56357;52.304;4.870;2023-01-27T00:17:57;102832.47;;;16.83;52.39
69245;BME280;56357;52.304;4.870;2023-01-27T00:20:23;102825.59;;;16.79;52.09
69245;BME280;56357;52.304;4.870;2023-01-27T00:23:04;102834.16;;;16.84;52.42
69245;BME280;56357;52.304;4.870;2023-01-27T00:25:48;102844.09;;;16.80;52.47
69245;BME280;56357;52.304;4.870;2023-01-27T00:28:22;102838.06;;;16.83;52.42
69245;BME280;56357;52.304;4.870;2023-01-27T00:30:50;102842.56;;;16.84;52.41
69245;BME280;56357;52.304;4.870;2023-01-27T00:33:16;102844.72;;;16.82;52.19
69245;BME280;56357;52.304;4.870;2023-01-27T00:35:57;102838.94;;;16.77;52.21
69245;BME280;56357;52.304;4.870;2023-01-27T00:38:26;102827.53;;;16.78;52.15
69245;BME280;56357;52.304;4.870;2023-01-27T00:40:52;102834.66;;;16.74;52.13
69245;BME280;56357;52.304;4.870;2023-01-27T00:43:36;102834.00;;;16.72;52.27
69245;BME280;56357;52.304;4.870;2023-01-27T00:46:03;102843.44;;;16.78;52.29
69245;BME280;56357;52.304;4.870;2023-01-27T00:48:29;102839.16;;;16.75;52.09
69245;BME280;56357;52.304;4.870;2023-01-27T00:50:56;102846.06;;;16.73;52.07
69245;BME280;56357;52.304;4.870;2023-01-27T00:53:22;102840.25;;;16.74;51.99
69245;BME280;56357;52.304;4.870;2023-01-27T00:55:49;102848.88;;;16.73;51.93
69245;BME280;56357;52.304;4.870;2023-01-27T00:58:15;102853.84;;;16.71;52.04
69245;BME280;56357;52.304;4.870;2023-01-27T01:00:42;102858.78;;;16.69;52.36
69245;BME280;56357;52.304;4.870;2023-01-27T01:03:08;102856.66;;;16.64;52.33
69245;BME280;56357;52.304;4.870;2023-01-27T01:05:35;102851.94;;;16.58;52.28
69245;BME280;56357;52.304;4.870;2023-01-27T01:08:01;102853.84;;;16.64;52.10
69245;BME280;56357;52.304;4.870;2023-01-27T01:10:28;102853.25;;;16.56;52.28
69245;BME280;56357;52.304;4.870;2023-01-27T01:12:54;102855.59;;;16.59;52.32
69245;BME280;56357;52.304;4.870;2023-01-27T01:15:21;102850.25;;;16.57;52.49
69245;BME280;56357;52.304;4.870;2023-01-27T01:17:47;102848.31;;;16.58;52.11
69245;BME280;56357;52.304;4.870;2023-01-27T01:20:14;102856.50;;;16.53;52.15
69245;BME280;56357;52.304;4.870;2023-01-27T01:22:40;102869.34;;;16.60;52.34
69245;BME280;56357;52.304;4.870;2023-01-27T01:25:07;102857.75;;;16.63;52.10
69245;BME280;56357;52.304;4.870;2023-01-27T01:27:33;102863.75;;;16.60;52.16
69245;BME280;56357;52.304;4.870;2023-01-27T01:30:00;102861.84;;;16.61;51.70
69245;BME280;56357;52.304;4.870;2023-01-27T01:32:26;102865.09;;;16.58;51.83
69245;BME280;56357;52.304;4.870;2023-01-27T01:34:53;102864.44;;;16.56;52.04
69245;BME280;56357;52.304;4.870;2023-01-27T01:37:19;102865.50;;;16.55;51.98
69245;BME280;56357;52.304;4.870;2023-01-27T01:39:46;102860.38;;;16.52;52.10
69245;BME280;56357;52.304;4.870;2023-01-27T01:42:12;102872.22;;;16.54;52.14
69245;BME280;56357;52.304;4.870;2023-01-27T01:44:42;102879.50;;;16.55;51.88
69245;BME280;56357;52.304;4.870;2023-01-27T01:47:16;102876.28;;;16.51;51.84
69245;BME280;56357;52.304;4.870;2023-01-27T01:49:44;102877.81;;;16.54;51.82
69245;BME280;56357;52.304;4.870;2023-01-27T01:52:15;102869.19;;;16.55;51.96
69245;BME280;56357;52.304;4.870;2023-01-27T01:54:46;102871.78;;;16.50;51.73
69245;BME280;56357;52.304;4.870;2023-01-27T01:57:21;102876.91;;;16.46;51.71
69245;BME280;56357;52.304;4.870;2023-01-27T01:59:56;102882.72;;;16.45;51.93
69245;BME280;56357;52.304;4.870;2023-01-27T02:02:23;102875.44;;;16.51;51.60
69245;BME280;56357;52.304;4.870;2023-01-27T02:05:02;102872.84;;;16.42;51.69
69245;BME280;56357;52.304;4.870;2023-01-27T02:07:43;102886.63;;;16.44;51.65
69245;BME280;56357;52.304;4.870;2023-01-27T02:10:12;102884.03;;;16.42;51.22
69245;BME280;56357;52.304;4.870;2023-01-27T02:12:38;102889.84;;;16.41;51.96
69245;BME280;56357;52.304;4.870;2023-01-27T02:15:05;102889.84;;;16.41;51.84
69245;BME280;56357;52.304;4.870;2023-01-27T02:17:33;102887.50;;;16.38;51.52
69245;BME280;56357;52.304;4.870;2023-01-27T02:22:51;102890.31;;;16.38;51.66
69245;BME280;56357;52.304;4.870;2023-01-27T02:28:04;102903.88;;;16.34;51.76
69245;BME280;56357;52.304;4.870;2023-01-27T02:30:31;102891.41;;;16.30;51.82
69245;BME280;56357;52.304;4.870;2023-01-27T02:32:58;102900.63;;;16.31;51.92
69245;BME280;56357;52.304;4.870;2023-01-27T02:35:33;102898.47;;;16.33;51.80
69245;BME280;56357;52.304;4.870;2023-01-27T02:38:02;102896.53;;;16.33;51.70
69245;BME280;56357;52.304;4.870;2023-01-27T02:40:31;102896.75;;;16.32;51.53
69245;BME280;56357;52.304;4.870;2023-01-27T02:42:59;102903.22;;;16.32;51.61
69245;BME280;56357;52.304;4.870;2023-01-27T02:45:25;102903.88;;;16.28;51.67
69245;BME280;56357;52.304;4.870;2023-01-27T02:47:53;102910.09;;;16.23;51.83
69245;BME280;56357;52.304;4.870;2023-01-27T02:50:19;102905.84;;;16.21;51.54
69245;BME280;56357;52.304;4.870;2023-01-27T02:52:45;102909.28;;;16.23;51.85
69245;BME280;56357;52.304;4.870;2023-01-27T02:55:12;102899.38;;;16.20;51.93
69245;BME280;56357;52.304;4.870;2023-01-27T02:57:39;102900.03;;;16.22;51.89
69245;BME280;56357;52.304;4.870;2023-01-27T03:00:06;102912.25;;;16.21;51.81
69245;BME280;56357;52.304;4.870;2023-01-27T03:02:33;102905.84;;;16.14;51.95
69245;BME280;56357;52.304;4.870;2023-01-27T03:05:00;102912.72;;;16.18;52.04
69245;BME280;56357;52.304;4.870;2023-01-27T03:07:27;102914.88;;;16.23;51.88
69245;BME280;56357;52.304;4.870;2023-01-27T03:09:53;102920.47;;;16.23;51.88
69245;BME280;56357;52.304;4.870;2023-01-27T03:12:20;102920.88;;;16.26;51.97
69245;BME280;56357;52.304;4.870;2023-01-27T03:14:47;102916.56;;;16.24;51.93
69245;BME280;56357;52.304;4.870;2023-01-27T03:17:32;102918.31;;;16.25;52.20
69245;BME280;56357;52.304;4.870;2023-01-27T03:20:16;102916.56;;;16.30;51.61
69245;BME280;56357;52.304;4.870;2023-01-27T03:22:43;102920.00;;;16.26;51.59
69245;BME280;56357;52.304;4.870;2023-01-27T03:25:10;102920.84;;;16.33;51.88
69245;BME280;56357;52.304;4.870;2023-01-27T03:27:36;102919.13;;;16.32;51.93
69245;BME280;56357;52.304;4.870;2023-01-27T03:30:03;102933.31;;;16.37;51.90
69245;BME280;56357;52.304;4.870;2023-01-27T03:32:31;102925.38;;;16.34;51.64
69245;BME280;56357;52.304;4.870;2023-01-27T03:34:58;102927.09;;;16.28;52.09
69245;BME280;56357;52.304;4.870;2023-01-27T03:37:29;102930.09;;;16.40;52.07
69245;BME280;56357;52.304;4.870;2023-01-27T03:40:14;102934.63;;;16.34;51.68
69245;BME280;56357;52.304;4.870;2023-01-27T03:42:58;102929.44;;;16.38;52.07
69245;BME280;56357;52.304;4.870;2023-01-27T03:45:49;102937.38;;;16.41;51.85
69245;BME280;56357;52.304;4.870;2023-01-27T03:48:34;102948.16;;;16.37;51.94
69245;BME280;56357;52.304;4.870;2023-01-27T03:51:04;102935.69;;;16.40;51.98
69245;BME280;56357;52.304;4.870;2023-01-27T03:53:32;102946.66;;;16.41;51.88
69245;BME280;56357;52.304;4.870;2023-01-27T03:55:59;102961.72;;;16.40;51.95
69245;BME280;56357;52.304;4.870;2023-01-27T03:58:28;102966.22;;;16.41;52.23
69245;BME280;56357;52.304;4.870;2023-01-27T04:01:04;102954.16;;;16.41;51.76
69245;BME280;56357;52.304;4.870;2023-01-27T04:03:34;102958.25;;;16.45;51.97
69245;BME280;56357;52.304;4.870;2023-01-27T04:06:21;102958.06;;;16.40;51.78
69245;BME280;56357;52.304;4.870;2023-01-27T04:09:07;102966.84;;;16.43;51.84
69245;BME280;56357;52.304;4.870;2023-01-27T04:11:34;102964.94;;;16.44;52.03
69245;BME280;56357;52.304;4.870;2023-01-27T04:14:19;102977.59;;;16.46;52.18
69245;BME280;56357;52.304;4.870;2023-01-27T04:16:46;102966.84;;;16.43;52.07
69245;BME280;56357;52.304;4.870;2023-01-27T04:19:13;102961.50;;;16.48;52.06
69245;BME280;56357;52.304;4.870;2023-01-27T04:21:40;102966.25;;;16.48;51.83
69245;BME280;56357;52.304;4.870;2023-01-27T04:24:08;102974.59;;;16.41;52.17
69245;BME280;56357;52.304;4.870;2023-01-27T04:26:44;102973.31;;;16.51;51.94
69245;BME280;56357;52.304;4.870;2023-01-27T04:29:12;102980.22;;;16.48;52.08
69245;BME280;56357;52.304;4.870;2023-01-27T04:31:39;102981.06;;;16.48;52.08
69245;BME280;56357;52.304;4.870;2023-01-27T04:34:07;102979.34;;;16.54;51.92
69245;BME280;56357;52.304;4.870;2023-01-27T04:36:34;102976.97;;;16.51;52.15
69245;BME280;56357;52.304;4.870;2023-01-27T04:39:00;102970.75;;;16.56;51.84
69245;BME280;56357;52.304;4.870;2023-01-27T04:41:27;102961.50;;;16.48;52.15
69245;BME280;56357;52.304;4.870;2023-01-27T04:43:53;102973.53;;;16.56;51.97
69245;BME280;56357;52.304;4.870;2023-01-27T04:46:20;102960.81;;;16.46;52.21
69245;BME280;56357;52.304;4.870;2023-01-27T04:48:46;102969.22;;;16.60;51.71
69245;BME280;56357;52.304;4.870;2023-01-27T04:51:13;102971.81;;;16.55;51.93
69245;BME280;56357;52.304;4.870;2023-01-27T04:53:39;102968.78;;;16.63;51.73
69245;BME280;56357;52.304;4.870;2023-01-27T04:56:20;102973.09;;;16.59;52.14
69245;BME280;56357;52.304;4.870;2023-01-27T04:58:47;102973.97;;;16.59;52.11
69245;BME280;56357;52.304;4.870;2023-01-27T05:01:14;102981.88;;;16.69;52.11
69245;BME280;56357;52.304;4.870;2023-01-27T05:03:40;102998.44;;;16.77;51.73
69245;BME280;56357;52.304;4.870;2023-01-27T05:06:11;102985.28;;;16.77;51.67
69245;BME280;56357;52.304;4.870;2023-01-27T05:08:37;102981.66;;;16.70;51.91
69245;BME280;56357;52.304;4.870;2023-01-27T05:11:04;102997.59;;;16.70;51.83
69245;BME280;56357;52.304;4.870;2023-01-27T05:13:31;102993.50;;;16.72;51.92
69245;BME280;56357;52.304;4.870;2023-01-27T05:16:10;103001.25;;;16.77;52.02
69245;BME280;56357;52.304;4.870;2023-01-27T05:18:38;103001.25;;;16.77;52.22
69245;BME280;56357;52.304;4.870;2023-01-27T05:21:06;103006.59;;;16.78;51.85
69245;BME280;56357;52.304;4.870;2023-01-27T05:23:33;102999.09;;;16.79;51.71
69245;BME280;56357;52.304;4.870;2023-01-27T05:28:30;102999.91;;;16.86;51.78
69245;BME280;56357;52.304;4.870;2023-01-27T05:31:08;103001.63;;;16.87;51.59
69245;BME280;56357;52.304;4.870;2023-01-27T05:33:35;102999.50;;;16.82;51.60
69245;BME280;56357;52.304;4.870;2023-01-27T05:36:03;103006.78;;;16.83;51.56
69245;BME280;56357;52.304;4.870;2023-01-27T05:38:30;103004.44;;;16.80;52.11
69245;BME280;56357;52.304;4.870;2023-01-27T05:40:58;103011.56;;;16.76;51.68
69245;BME280;56357;52.304;4.870;2023-01-27T05:43:27;103021.41;;;16.92;51.83
69245;BME280;56357;52.304;4.870;2023-01-27T05:46:00;103010.91;;;16.81;51.80
69245;BME280;56357;52.304;4.870;2023-01-27T05:48:28;103023.81;;;16.88;51.97
69245;BME280;56357;52.304;4.870;2023-01-27T05:50:56;103026.38;;;16.83;51.88
69245;BME280;56357;52.304;4.870;2023-01-27T05:53:23;103024.88;;;16.94;51.65
69245;BME280;56357;52.304;4.870;2023-01-27T05:55:50;103017.16;;;16.83;51.99
69245;BME280;56357;52.304;4.870;2023-01-27T05:58:18;103020.13;;;16.88;51.95
69245;BME280;56357;52.304;4.870;2023-01-27T06:00:45;103029.38;;;16.95;51.85
69245;BME280;56357;52.304;4.870;2023-01-27T06:03:11;103024.19;;;16.98;51.70
69245;BME280;56357;52.304;4.870;2023-01-27T06:05:38;103020.97;;;16.95;51.38
69245;BME280;56357;52.304;4.870;2023-01-27T06:08:04;103015.78;;;16.98;51.72
69245;BME280;56357;52.304;4.870;2023-01-27T06:10:31;103016.22;;;17.02;51.90
69245;BME280;56357;52.304;4.870;2023-01-27T06:13:01;103021.38;;;17.05;51.69
69245;BME280;56357;52.304;4.870;2023-01-27T06:15:27;103023.97;;;17.00;52.00
69245;BME280;56357;52.304;4.870;2023-01-27T06:17:54;103023.13;;;16.93;52.15
69245;BME280;56357;52.304;4.870;2023-01-27T06:20:21;103024.41;;;16.97;52.12
69245;BME280;56357;52.304;4.870;2023-01-27T06:22:48;103019.25;;;16.94;52.55
69245;BME280;56357;52.304;4.870;2023-01-27T06:25:15;103026.75;;;17.06;52.60
69245;BME280;56357;52.304;4.870;2023-01-27T06:27:41;103034.94;;;17.01;52.39
69245;BME280;56357;52.304;4.870;2023-01-27T06:30:08;103039.00;;;17.12;52.47
69245;BME280;56357;52.304;4.870;2023-01-27T06:32:35;103039.03;;;17.05;52.47
69245;BME280;56357;52.304;4.870;2023-01-27T06:35:02;103024.34;;;17.16;52.43
69245;BME280;56357;52.304;4.870;2023-01-27T06:37:29;103009.34;;;16.98;52.43
69245;BME280;56357;52.304;4.870;2023-01-27T06:39:55;103027.16;;;17.10;52.98
69245;BME280;56357;52.304;4.870;2023-01-27T06:42:22;103033.38;;;17.18;52.91
69245;BME280;56357;52.304;4.870;2023-01-27T06:44:48;103036.66;;;17.09;53.41
69245;BME280;56357;52.304;4.870;2023-01-27T06:47:15;103031.22;;;17.20;53.09
69245;BME280;56357;52.304;4.870;2023-01-27T06:49:41;103031.44;;;17.19;53.40
69245;BME280;56357;52.304;4.870;2023-01-27T06:52:08;103023.44;;;17.22;52.98
69245;BME280;56357;52.304;4.870;2023-01-27T06:54:34;103025.19;;;17.17;53.81
69245;BME280;56357;52.304;4.870;2023-01-27T06:57:00;103022.56;;;17.28;53.75
69245;BME280;56357;52.304;4.870;2023-01-27T06:59:27;103014.41;;;17.20;53.85
69245;BME280;56357;52.304;4.870;2023-01-27T07:01:53;103026.00;;;17.30;53.73
69245;BME280;56357;52.304;4.870;2023-01-27T07:04:21;103035.47;;;17.29;53.81
69245;BME280;56357;52.304;4.870;2023-01-27T07:06:47;103029.22;;;17.27;54.10
69245;BME280;56357;52.304;4.870;2023-01-27T07:09:14;103036.34;;;17.23;54.21
69245;BME280;56357;52.304;4.870;2023-01-27T07:11:40;103041.91;;;17.36;53.63
69245;BME280;56357;52.304;4.870;2023-01-27T07:14:07;103045.84;;;17.22;54.00
69245;BME280;56357;52.304;4.870;2023-01-27T07:16:33;103045.38;;;17.25;53.69
69245;BME280;56357;52.304;4.870;2023-01-27T07:18:59;103063.03;;;17.32;53.93
69245;BME280;56357;52.304;4.870;2023-01-27T07:21:26;103057.00;;;17.29;53.25
69245;BME280;56357;52.304;4.870;2023-01-27T07:23:55;103072.50;;;17.38;53.82
69245;BME280;56357;52.304;4.870;2023-01-27T07:26:27;103070.13;;;17.35;53.88
69245;BME280;56357;52.304;4.870;2023-01-27T07:28:55;103077.88;;;17.33;54.00
69245;BME280;56357;52.304;4.870;2023-01-27T07:31:22;103079.78;;;17.46;54.13
69245;BME280;56357;52.304;4.870;2023-01-27T07:33:48;103078.75;;;17.27;54.14
69245;BME280;56357;52.304;4.870;2023-01-27T07:36:15;103087.31;;;17.45;54.49
69245;BME280;56357;52.304;4.870;2023-01-27T07:38:41;103081.63;;;17.20;54.81
69245;BME280;56357;52.304;4.870;2023-01-27T07:41:07;103085.66;;;17.31;55.46
69245;BME280;56357;52.304;4.870;2023-01-27T07:43:34;103096.81;;;17.44;55.03
69245;BME280;56357;52.304;4.870;2023-01-27T07:46:00;103095.97;;;17.44;55.10
69245;BME280;56357;52.304;4.870;2023-01-27T07:48:27;103085.41;;;17.39;55.34
69245;BME280;56357;52.304;4.870;2023-01-27T07:50:53;103091.22;;;17.44;55.09
69245;BME280;56357;52.304;4.870;2023-01-27T07:53:19;103099.59;;;17.51;54.53
69245;BME280;56357;52.304;4.870;2023-01-27T07:55:46;103089.91;;;17.47;54.50
69245;BME280;56357;52.304;4.870;2023-01-27T07:58:12;103098.97;;;17.42;54.81
69245;BME280;56357;52.304;4.870;2023-01-27T08:00:39;103086.91;;;17.42;54.74
69245;BME280;56357;52.304;4.870;2023-01-27T08:03:06;103079.38;;;17.42;53.47
69245;BME280;56357;52.304;4.870;2023-01-27T08:05:33;103084.53;;;17.52;53.56
69245;BME280;56357;52.304;4.870;2023-01-27T08:08:00;103085.81;;;17.49;53.89
69245;BME280;56357;52.304;4.870;2023-01-27T08:10:29;103097.03;;;17.49;53.74
69245;BME280;56357;52.304;4.870;2023-01-27T08:12:55;103097.44;;;17.53;53.44
69245;BME280;56357;52.304;4.870;2023-01-27T08:15:22;103105.38;;;17.62;53.54
69245;BME280;56357;52.304;4.870;2023-01-27T08:17:55;103104.78;;;17.54;52.43
69245;BME280;56357;52.304;4.870;2023-01-27T08:20:24;103099.16;;;17.47;52.74
69245;BME280;56357;52.304;4.870;2023-01-27T08:22:51;103102.84;;;17.48;52.69
69245;BME280;56357;52.304;4.870;2023-01-27T08:25:18;103112.31;;;17.47;52.90
69245;BME280;56357;52.304;4.870;2023-01-27T08:27:48;103105.88;;;17.46;53.00
69245;BME280;56357;52.304;4.870;2023-01-27T08:30:15;103105.00;;;17.39;52.76
69245;BME280;56357;52.304;4.870;2023-01-27T08:32:41;103112.75;;;17.50;52.73
69245;BME280;56357;52.304;4.870;2023-01-27T08:35:08;103115.13;;;17.53;52.61
69245;BME280;56357;52.304;4.870;2023-01-27T08:37:34;103120.50;;;17.55;52.98
69245;BME280;56357;52.304;4.870;2023-01-27T08:40:01;103128.50;;;17.51;52.93
69245;BME280;56357;52.304;4.870;2023-01-27T08:42:27;103125.03;;;17.56;52.82
69245;BME280;56357;52.304;4.870;2023-01-27T08:44:54;103137.75;;;17.52;52.72
69245;BME280;56357;52.304;4.870;2023-01-27T08:47:20;103121.56;;;17.47;52.57
69245;BME280;56357;52.304;4.870;2023-01-27T08:49:46;103125.25;;;17.48;51.74
69245;BME280;56357;52.304;4.870;2023-01-27T08:52:13;103124.59;;;17.46;52.81
69245;BME280;56357;52.304;4.870;2023-01-27T08:54:39;103115.97;;;17.47;52.63
69245;BME280;56357;52.304;4.870;2023-01-27T08:57:06;103119.66;;;17.48;52.91
69245;BME280;56357;52.304;4.870;2023-01-27T08:59:32;103124.59;;;17.52;52.68
69245;BME280;56357;52.304;4.870;2023-01-27T09:01:59;103122.66;;;17.53;52.47
69245;BME280;56357;52.304;4.870;2023-01-27T09:04:25;103123.50;;;17.47;52.85
69245;BME280;56357;52.304;4.870;2023-01-27T09:06:53;103130.19;;;17.52;53.13
69245;BME280;56357;52.304;4.870;2023-01-27T09:09:20;103125.03;;;17.42;53.34
69245;BME280;56357;52.304;4.870;2023-01-27T09:11:46;103125.66;;;17.45;53.01
69245;BME280;56357;52.304;4.870;2023-01-27T09:14:12;103127.19;;;17.47;52.98
69245;BME280;56357;52.304;4.870;2023-01-27T09:16:39;103135.19;;;17.37;53.18
69245;BME280;56357;52.304;4.870;2023-01-27T09:19:05;103130.22;;;17.46;52.94
69245;BME280;56357;52.304;4.870;2023-01-27T09:21:32;103134.94;;;17.45;52.50
69245;BME280;56357;52.304;4.870;2023-01-27T09:23:59;103139.25;;;17.48;53.05
69245;BME280;56357;52.304;4.870;2023-01-27T09:26:25;103139.69;;;17.51;52.75
69245;BME280;56357;52.304;4.870;2023-01-27T09:28:52;103140.16;;;17.48;52.58
69245;BME280;56357;52.304;4.870;2023-01-27T09:31:18;103144.63;;;17.42;53.23
69245;BME280;56357;52.304;4.870;2023-01-27T09:33:45;103136.22;;;17.42;52.72
69245;BME280;56357;52.304;4.870;2023-01-27T09:36:13;103145.31;;;17.51;52.92
69245;BME280;56357;52.304;4.870;2023-01-27T09:38:52;103142.28;;;17.46;52.55
69245;BME280;56357;52.304;4.870;2023-01-27T09:41:55;103157.34;;;17.45;52.96
69245;BME280;56357;52.304;4.870;2023-01-27T10:07:37;103143.56;;;17.50;56.03
69245;BME280;56357;52.304;4.870;2023-01-27T10:10:42;103128.53;;;17.38;54.40
69245;BME280;56357;52.304;4.870;2023-01-27T10:13:27;103153.25;;;17.48;54.21
69245;BME280;56357;52.304;4.870;2023-01-27T10:22:07;103149.59;;;17.47;55.69
69245;BME280;56357;52.304;4.870;2023-01-27T10:27:33;103159.75;;;17.48;55.70
69245;BME280;56357;52.304;4.870;2023-01-27T10:30:36;103155.63;;;17.51;55.57
69245;BME280;56357;52.304;4.870;2023-01-27T10:33:15;103143.13;;;17.53;55.71
69245;BME280;56357;52.304;4.870;2023-01-27T10:35:58;103138.41;;;17.54;55.69
69245;BME280;56357;52.304;4.870;2023-01-27T10:38:35;103145.81;;;17.79;55.16
69245;BME280;56357;52.304;4.870;2023-01-27T10:44:21;103139.69;;;17.95;54.46
69245;BME280;56357;52.304;4.870;2023-01-27T10:47:00;103134.72;;;17.97;54.45
69245;BME280;56357;52.304;4.870;2023-01-27T10:49:38;103129.97;;;17.98;54.25
69245;BME280;56357;52.304;4.870;2023-01-27T10:52:13;103135.91;;;18.14;53.86
69245;BME280;56357;52.304;4.870;2023-01-27T10:54:45;103124.28;;;18.11;53.81
69245;BME280;56357;52.304;4.870;2023-01-27T11:00:05;103138.94;;;18.13;53.57
69245;BME280;56357;52.304;4.870;2023-01-27T11:02:43;103124.28;;;18.11;52.75
69245;BME280;56357;52.304;4.870;2023-01-27T11:05:21;103129.19;;;18.15;53.29
69245;BME280;56357;52.304;4.870;2023-01-27T11:07:59;103129.81;;;18.17;52.67
69245;BME280;56357;52.304;4.870;2023-01-27T11:10:40;103127.25;;;18.16;53.59
69245;BME280;56357;52.304;4.870;2023-01-27T11:13:30;103128.94;;;18.23;53.65
69245;BME280;56357;52.304;4.870;2023-01-27T11:15:58;103129.53;;;18.32;54.60
69245;BME280;56357;52.304;4.870;2023-01-27T11:18:27;103128.69;;;18.25;54.31
69245;BME280;56357;52.304;4.870;2023-01-27T11:20:58;103130.56;;;18.38;54.19
69245;BME280;56357;52.304;4.870;2023-01-27T11:23:28;103128.03;;;18.29;53.44
69245;BME280;56357;52.304;4.870;2023-01-27T11:32:03;103132.22;;;18.52;53.25
69245;BME280;56357;52.304;4.870;2023-01-27T11:34:40;103123.31;;;18.55;52.76
69245;BME280;56357;52.304;4.870;2023-01-27T11:37:18;103133.25;;;18.57;52.45
69245;BME280;56357;52.304;4.870;2023-01-27T11:39:46;103127.22;;;18.54;52.72
69245;BME280;56357;52.304;4.870;2023-01-27T11:42:14;103117.75;;;18.48;52.64
69245;BME280;56357;52.304;4.870;2023-01-27T11:44:41;103122.72;;;18.46;52.99
69245;BME280;56357;52.304;4.870;2023-01-27T11:47:19;103129.59;;;18.50;52.58
69245;BME280;56357;52.304;4.870;2023-01-27T11:49:47;103120.00;;;18.64;52.66
69245;BME280;56357;52.304;4.870;2023-01-27T11:52:20;103117.22;;;18.58;52.70
69245;BME280;56357;52.304;4.870;2023-01-27T11:55:14;103120.66;;;18.60;52.90
69245;BME280;56357;52.304;4.870;2023-01-27T11:57:55;103117.88;;;18.60;52.67
69245;BME280;56357;52.304;4.870;2023-01-27T12:00:45;103109.28;;;18.55;53.51
69245;BME280;56357;52.304;4.870;2023-01-27T12:03:29;103117.94;;;18.53;53.53
69245;BME280;56357;52.304;4.870;2023-01-27T12:06:11;103111.00;;;18.56;53.82
69245;BME280;56357;52.304;4.870;2023-01-27T12:08:45;103115.47;;;18.63;53.90
69245;BME280;56357;52.304;4.870;2023-01-27T12:11:23;103081.91;;;18.50;54.16
69245;BME280;56357;52.304;4.870;2023-01-27T12:16:19;103094.88;;;18.69;53.77
69245;BME280;56357;52.304;4.870;2023-01-27T12:18:50;103093.56;;;18.72;53.47
69245;BME280;56357;52.304;4.870;2023-01-27T12:21:18;103099.72;;;18.62;54.23
69245;BME280;56357;52.304;4.870;2023-01-27T12:23:48;103094.63;;;18.53;54.03
69245;BME280;56357;52.304;4.870;2023-01-27T12:26:34;103109.34;;;18.48;53.87
69245;BME280;56357;52.304;4.870;2023-01-27T12:29:13;103102.88;;;18.48;54.06
69245;BME280;56357;52.304;4.870;2023-01-27T12:31:47;103097.28;;;18.48;54.01
69245;BME280;56357;52.304;4.870;2023-01-27T12:34:27;103102.50;;;18.38;54.16
69245;BME280;56357;52.304;4.870;2023-01-27T12:36:55;103102.25;;;18.46;54.01
69245;BME280;56357;52.304;4.870;2023-01-27T12:39:40;103091.19;;;18.51;53.66
69245;BME280;56357;52.304;4.870;2023-01-27T12:42:41;103095.31;;;18.48;54.10
69245;BME280;56357;52.304;4.870;2023-01-27T12:45:29;103093.38;;;18.49;53.81
69245;BME280;56357;52.304;4.870;2023-01-27T12:50:35;103096.16;;;18.49;54.12
69245;BME280;56357;52.304;4.870;2023-01-27T12:58:35;103098.09;;;18.48;54.48
69245;BME280;56357;52.304;4.870;2023-01-27T13:03:54;103089.16;;;18.58;54.38
69245;BME280;56357;52.304;4.870;2023-01-27T13:09:31;103084.06;;;18.48;54.25
69245;BME280;56357;52.304;4.870;2023-01-27T13:12:24;103079.97;;;18.51;54.18
69245;BME280;56357;52.304;4.870;2023-01-27T13:14:55;103084.78;;;18.44;53.85
69245;BME280;56357;52.304;4.870;2023-01-27T13:20:07;103070.13;;;18.35;53.07
69245;BME280;56357;52.304;4.870;2023-01-27T13:22:44;103071.47;;;18.33;54.21
69245;BME280;56357;52.304;4.870;2023-01-27T13:25:17;103082.69;;;18.33;54.03
69245;BME280;56357;52.304;4.870;2023-01-27T13:27:45;103089.63;;;18.30;53.91
69245;BME280;56357;52.304;4.870;2023-01-27T13:30:15;103087.03;;;18.28;54.01
69245;BME280;56357;52.304;4.870;2023-01-27T13:32:48;103090.06;;;18.27;54.00
69245;BME280;56357;52.304;4.870;2023-01-27T13:35:23;103081.72;;;18.20;53.96
69245;BME280;56357;52.304;4.870;2023-01-27T13:37:58;103078.44;;;18.23;53.86
69245;BME280;56357;52.304;4.870;2023-01-27T13:40:33;103094.34;;;18.29;53.56
69245;BME280;56357;52.304;4.870;2023-01-27T13:50:46;103102.25;;;18.14;53.29
69245;BME280;56357;52.304;4.870;2023-01-27T13:53:17;103093.19;;;18.12;53.02
69245;BME280;56357;52.304;4.870;2023-01-27T13:56:07;103114.34;;;18.15;53.54
69245;BME280;56357;52.304;4.870;2023-01-27T14:12:53;103107.00;;;18.14;53.31
69245;BME280;56357;52.304;4.870;2023-01-27T14:15:36;103113.94;;;18.11;53.57
69245;BME280;56357;52.304;4.870;2023-01-27T14:18:15;103108.31;;;18.11;53.09
69245;BME280;56357;52.304;4.870;2023-01-27T14:23:31;103111.88;;;17.94;53.55
69245;BME280;56357;52.304;4.870;2023-01-27T14:29:01;103114.75;;;18.12;52.65
69245;BME280;56357;52.304;4.870;2023-01-27T14:32:14;103119.53;;;18.11;53.14
69245;BME280;56357;52.304;4.870;2023-01-27T14:40:31;103121.06;;;18.07;51.36
69245;BME280;56357;52.304;4.870;2023-01-27T14:45:52;103118.91;;;18.09;51.16
69245;BME280;56357;52.304;4.870;2023-01-27T14:48:47;103127.34;;;18.03;50.71
69245;BME280;56357;52.304;4.870;2023-01-27T14:51:34;103125.84;;;18.00;51.34
69245;BME280;56357;52.304;4.870;2023-01-27T15:06:32;103129.41;;;17.83;51.20
69245;BME280;56357;52.304;4.870;2023-01-27T15:12:18;103136.06;;;17.88;51.45